createdAt,value
2022-12-03T00:01:34.236Z,2.85
2022-12-03T00:04:03.150Z,3.20
2022-12-03T00:06:34.901Z,3.97
2022-12-03T00:09:04.456Z,2.53
2022-12-03T00:11:34.380Z,3.72
2022-12-03T00:14:03.944Z,3.35
2022-12-03T00:16:33.232Z,3.10
2022-12-03T00:19:01.813Z,2.95
2022-12-03T00:21:32.130Z,3.00
2022-12-03T00:24:01.334Z,3.13
2022-12-03T00:26:29.511Z,2.60
2022-12-03T00:28:58.707Z,3.30
2022-12-03T00:31:27.739Z,4.03
2022-12-03T00:33:56.066Z,3.97
2022-12-03T00:36:24.709Z,3.30
2022-12-03T00:38:57.156Z,4.15
2022-12-03T00:41:25.287Z,3.40
2022-12-03T00:43:57.503Z,2.97
2022-12-03T00:46:25.808Z,3.05
2022-12-03T00:48:55.096Z,4.03
2022-12-03T00:51:23.352Z,3.50
2022-12-03T00:53:53.297Z,3.95
2022-12-03T00:56:24.962Z,2.50
2022-12-03T00:58:53.465Z,3.40
2022-12-03T01:01:21.729Z,4.30
2022-12-03T01:03:50.013Z,3.83
2022-12-03T01:06:20.925Z,3.50
2022-12-03T01:08:49.516Z,3.08
2022-12-03T01:11:41.639Z,3.72
2022-12-03T01:14:14.690Z,3.75
2022-12-03T01:16:43.571Z,3.65
2022-12-03T01:19:15.798Z,4.93
2022-12-03T01:21:45.947Z,4.57
2022-12-03T01:24:15.687Z,3.83
2022-12-03T01:26:43.884Z,3.63
2022-12-03T01:29:13.566Z,4.60
2022-12-03T01:34:27.988Z,3.85
2022-12-03T01:36:56.964Z,3.83
2022-12-03T01:39:25.971Z,4.10
2022-12-03T01:41:55.603Z,4.47
2022-12-03T01:47:03.636Z,4.03
2022-12-03T01:49:38.019Z,5.43
2022-12-03T01:52:07.648Z,4.47
2022-12-03T01:54:44.628Z,4.88
2022-12-03T01:57:21.152Z,4.32
2022-12-03T01:59:51.782Z,5.07
2022-12-03T02:02:24.763Z,4.75
2022-12-03T02:04:54.531Z,4.82
2022-12-03T02:07:28.004Z,4.78
2022-12-03T02:09:59.706Z,4.22
2022-12-03T02:12:32.793Z,3.95
2022-12-03T02:15:03.585Z,4.50
2022-12-03T02:17:32.905Z,4.38
2022-12-03T02:20:02.977Z,5.18
2022-12-03T02:22:41.461Z,5.88
2022-12-03T02:25:13.500Z,4.55
2022-12-03T02:27:43.636Z,5.78
2022-12-03T02:30:15.178Z,4.75
2022-12-03T02:32:45.602Z,5.07
2022-12-03T02:35:15.946Z,5.13
2022-12-03T02:37:46.160Z,5.45
2022-12-03T02:40:22.468Z,5.22
2022-12-03T02:42:54.143Z,5.47
2022-12-03T02:45:26.234Z,5.32
2022-12-03T02:47:58.791Z,5.18
2022-12-03T02:50:33.298Z,6.28
2022-12-03T02:53:04.541Z,5.03
2022-12-03T02:55:43.798Z,5.65
2022-12-03T02:58:13.580Z,5.13
2022-12-03T03:00:43.496Z,5.22
2022-12-03T03:03:12.283Z,5.57
2022-12-03T03:05:41.834Z,6.03
2022-12-03T03:08:12.897Z,5.32
2022-12-03T03:13:14.262Z,4.82
2022-12-03T03:15:44.334Z,5.88
2022-12-03T03:18:15.491Z,6.90
2022-12-03T03:20:44.819Z,6.20
2022-12-03T03:23:18.255Z,6.95
2022-12-03T03:25:50.636Z,5.72
2022-12-03T03:28:20.554Z,5.25
2022-12-03T03:30:50.780Z,6.15
2022-12-03T03:33:19.751Z,5.30
2022-12-03T03:35:50.020Z,7.65
2022-12-03T03:38:20.809Z,6.53
2022-12-03T03:40:52.632Z,6.43
2022-12-03T03:43:22.062Z,6.70
2022-12-03T03:45:51.501Z,4.53
2022-12-03T03:48:22.428Z,5.40
2022-12-03T03:50:51.851Z,6.45
2022-12-03T03:53:20.906Z,5.30
2022-12-03T03:55:51.220Z,7.30
2022-12-03T03:58:20.605Z,5.45
2022-12-03T04:00:49.059Z,6.45
2022-12-03T04:03:18.096Z,8.07
2022-12-03T04:05:46.815Z,6.13
2022-12-03T04:08:17.508Z,8.27
2022-12-03T04:11:03.326Z,6.38
2022-12-03T04:13:33.230Z,5.90
2022-12-03T04:18:44.769Z,5.40
2022-12-03T04:21:32.912Z,6.22
2022-12-03T04:24:02.617Z,6.57
2022-12-03T04:26:49.223Z,5.32
2022-12-03T04:29:21.856Z,5.53
2022-12-03T04:32:16.179Z,5.57
2022-12-03T04:35:02.138Z,6.05
2022-12-03T04:37:30.612Z,6.40
2022-12-03T04:39:58.827Z,6.30
2022-12-03T04:42:26.942Z,6.78
2022-12-03T04:44:58.526Z,5.78
2022-12-03T04:47:26.927Z,5.18
2022-12-03T04:49:55.378Z,6.65
2022-12-03T04:52:25.113Z,5.75
2022-12-03T04:54:53.761Z,5.68
2022-12-03T04:57:22.133Z,6.47
2022-12-03T04:59:51.947Z,6.55
2022-12-03T05:04:49.514Z,6.88
2022-12-03T05:07:18.087Z,4.95
2022-12-03T05:09:46.238Z,5.65
2022-12-03T05:12:15.296Z,7.05
2022-12-03T05:14:43.919Z,5.43
2022-12-03T05:17:12.716Z,6.47
2022-12-03T05:20:00.313Z,6.68
2022-12-03T05:22:28.410Z,6.15
2022-12-03T05:24:58.305Z,6.00
2022-12-03T05:29:57.023Z,6.07
2022-12-03T05:32:26.661Z,5.50
2022-12-03T05:34:56.517Z,6.15
2022-12-03T05:37:25.393Z,6.30
2022-12-03T05:39:54.790Z,5.78
2022-12-03T05:42:40.956Z,6.32
2022-12-03T05:45:10.702Z,6.78
2022-12-03T05:47:41.960Z,7.15
2022-12-03T05:50:12.704Z,7.25
2022-12-03T05:52:41.445Z,6.70
2022-12-03T05:55:10.258Z,6.07
2022-12-03T05:57:39.078Z,6.47
2022-12-03T06:00:14.403Z,7.03
2022-12-03T06:02:43.700Z,5.63
2022-12-03T06:05:15.364Z,4.95
2022-12-03T06:07:44.370Z,4.40
2022-12-03T06:10:16.773Z,6.53
2022-12-03T06:12:45.310Z,6.15
2022-12-03T06:15:15.586Z,6.82
2022-12-03T06:17:43.959Z,6.88
2022-12-03T06:20:15.773Z,7.07
2022-12-03T06:22:44.704Z,6.63
2022-12-03T06:25:13.500Z,7.13
2022-12-03T06:27:41.880Z,8.23
2022-12-03T06:32:42.071Z,6.25
2022-12-03T06:35:10.856Z,6.60
2022-12-03T06:37:40.306Z,7.70
2022-12-03T06:40:09.693Z,7.20
2022-12-03T06:42:38.682Z,7.00
2022-12-03T06:45:07.723Z,7.05
2022-12-03T06:47:36.100Z,7.13
2022-12-03T06:50:05.120Z,7.53
2022-12-03T06:52:34.636Z,6.20
2022-12-03T06:55:04.980Z,7.53
2022-12-03T06:57:34.581Z,7.85
2022-12-03T07:00:03.549Z,5.20
2022-12-03T07:02:32.014Z,7.95
2022-12-03T07:05:00.536Z,6.55
2022-12-03T07:07:36.219Z,6.18
2022-12-03T07:10:07.220Z,7.30
2022-12-03T07:12:35.634Z,6.57
2022-12-03T07:15:05.581Z,5.38
2022-12-03T07:17:34.162Z,6.38
2022-12-03T07:20:05.576Z,6.95
2022-12-03T07:22:35.957Z,6.47
2022-12-03T07:25:06.787Z,7.30
2022-12-03T07:27:38.646Z,6.78
2022-12-03T07:30:08.688Z,8.10
2022-12-03T07:32:37.039Z,6.60
2022-12-03T07:35:07.829Z,6.72
2022-12-03T07:37:36.432Z,7.97
2022-12-03T07:40:07.842Z,8.13
2022-12-03T07:42:36.000Z,6.57
2022-12-03T07:45:07.941Z,7.90
2022-12-03T07:47:36.170Z,7.20
2022-12-03T07:50:04.772Z,7.28
2022-12-03T07:52:33.356Z,8.18
2022-12-03T07:55:01.566Z,6.57
2022-12-03T07:57:31.661Z,7.00
2022-12-03T08:02:28.928Z,7.05
2022-12-03T08:04:59.846Z,6.72
2022-12-03T08:07:28.519Z,6.60
2022-12-03T08:09:57.083Z,8.48
2022-12-03T08:12:39.926Z,6.03
2022-12-03T08:15:15.661Z,6.72
2022-12-03T08:17:45.732Z,7.05
2022-12-03T08:20:17.209Z,5.85
2022-12-03T08:22:47.978Z,6.15
2022-12-03T08:25:21.326Z,5.97
2022-12-03T08:27:50.333Z,6.90
2022-12-03T08:30:21.795Z,6.60
2022-12-03T08:32:51.755Z,7.90
2022-12-03T08:35:24.472Z,5.40
2022-12-03T08:38:00.520Z,7.07
2022-12-03T08:40:35.769Z,6.65
2022-12-03T08:43:14.904Z,6.53
2022-12-03T08:45:44.721Z,6.68
2022-12-03T08:48:33.085Z,6.03
2022-12-03T08:51:04.928Z,6.32
2022-12-03T08:53:36.190Z,6.25
2022-12-03T08:56:14.276Z,6.20
2022-12-03T08:58:44.834Z,6.05
2022-12-03T09:01:34.214Z,6.47
2022-12-03T09:04:38.737Z,7.10
2022-12-03T09:07:08.671Z,5.55
2022-12-03T09:09:37.970Z,5.43
2022-12-03T09:12:07.081Z,5.85
2022-12-03T09:14:35.413Z,5.90
2022-12-03T09:17:06.958Z,6.07
2022-12-03T09:19:35.423Z,6.82
2022-12-03T09:22:03.721Z,6.15
2022-12-03T09:24:34.645Z,7.65
2022-12-03T09:27:03.036Z,7.38
2022-12-03T09:29:31.142Z,4.68
2022-12-03T09:31:59.759Z,6.03
2022-12-03T09:34:30.877Z,6.28
2022-12-03T09:39:27.096Z,4.15
2022-12-03T09:41:57.843Z,6.60
2022-12-03T09:44:27.604Z,4.95
2022-12-03T09:49:31.454Z,4.50
2022-12-03T09:52:04.155Z,5.85
2022-12-03T09:54:33.895Z,5.88
2022-12-03T09:57:04.777Z,4.40
2022-12-03T09:59:35.157Z,6.22
2022-12-03T10:02:05.870Z,6.78
2022-12-03T10:04:35.974Z,6.15
2022-12-03T10:07:04.505Z,7.45
2022-12-03T10:09:36.713Z,5.03
2022-12-03T10:12:06.228Z,6.50
2022-12-03T10:14:41.240Z,5.70
2022-12-03T10:17:16.767Z,8.30
2022-12-03T10:19:47.515Z,5.85
2022-12-03T10:22:17.212Z,5.00
2022-12-03T10:27:25.675Z,7.15
2022-12-03T10:29:59.182Z,6.10
2022-12-03T10:32:44.395Z,6.35
2022-12-03T10:35:16.475Z,6.53
2022-12-03T10:37:59.672Z,6.28
2022-12-03T10:40:30.486Z,6.57
2022-12-03T10:43:16.841Z,6.63
2022-12-03T10:45:47.355Z,6.45
2022-12-03T10:48:17.273Z,5.15
2022-12-03T10:50:52.598Z,6.38
2022-12-03T10:53:23.509Z,6.55
2022-12-03T10:55:58.714Z,5.97
2022-12-03T10:58:30.525Z,6.53
2022-12-03T11:01:02.699Z,5.65
2022-12-03T11:03:37.080Z,5.82
2022-12-03T11:06:16.275Z,6.13
2022-12-03T11:08:54.739Z,5.60
2022-12-03T11:11:28.968Z,5.63
2022-12-03T11:13:58.506Z,5.47
2022-12-03T11:17:04.493Z,6.33
2022-12-03T11:19:50.870Z,6.40
2022-12-03T11:22:29.131Z,6.70
2022-12-03T11:25:37.417Z,6.93
2022-12-03T11:28:48.261Z,6.15
2022-12-03T11:31:36.143Z,5.93
2022-12-03T11:34:49.450Z,6.03
2022-12-03T11:37:28.115Z,5.20
2022-12-03T11:40:05.841Z,5.97
2022-12-03T11:42:41.783Z,5.85
2022-12-03T11:45:29.585Z,5.75
2022-12-03T11:48:12.825Z,6.82
2022-12-03T11:50:44.717Z,5.82
2022-12-03T11:53:18.427Z,5.30
2022-12-03T11:56:06.007Z,6.93
2022-12-03T11:58:36.387Z,6.15
2022-12-03T12:01:07.286Z,6.00
2022-12-03T12:03:44.784Z,5.63
2022-12-03T12:06:16.214Z,6.15
2022-12-03T12:09:14.784Z,7.03
2022-12-03T12:12:54.614Z,6.65
2022-12-03T12:16:15.755Z,6.75
2022-12-03T12:18:45.777Z,6.15
2022-12-03T12:21:39.382Z,6.05
2022-12-03T12:24:40.771Z,6.90
2022-12-03T12:27:11.297Z,7.75
2022-12-03T12:29:47.814Z,7.40
2022-12-03T12:32:19.059Z,6.38
2022-12-03T12:34:49.861Z,5.97
2022-12-03T12:37:21.786Z,7.20
2022-12-03T12:39:59.669Z,5.70
2022-12-03T12:42:34.688Z,6.65
2022-12-03T12:45:14.137Z,7.43
2022-12-03T12:47:50.115Z,7.05
2022-12-03T12:50:20.244Z,7.25
2022-12-03T12:52:54.866Z,6.22
2022-12-03T12:55:25.444Z,6.47
2022-12-03T12:57:54.556Z,6.82
2022-12-03T13:00:27.415Z,7.13
2022-12-03T13:03:04.871Z,6.55
2022-12-03T13:05:39.494Z,7.20
2022-12-03T13:08:23.541Z,7.70
2022-12-03T13:10:55.063Z,8.73
2022-12-03T13:13:26.664Z,7.70
2022-12-03T13:16:01.587Z,9.23
2022-12-03T13:18:46.184Z,7.63
2022-12-03T13:21:37.848Z,7.35
2022-12-03T13:24:29.907Z,7.45
2022-12-03T13:27:03.901Z,8.30
2022-12-03T13:29:33.349Z,7.10
2022-12-03T13:32:11.035Z,7.05
2022-12-03T13:34:40.378Z,8.27
2022-12-03T13:37:15.457Z,7.90
2022-12-03T13:39:48.065Z,6.70
2022-12-03T13:42:43.116Z,7.63
2022-12-03T13:45:33.828Z,8.35
2022-12-03T13:48:04.123Z,7.05
2022-12-03T13:50:37.257Z,7.82
2022-12-03T13:53:16.984Z,7.28
2022-12-03T13:55:48.189Z,8.18
2022-12-03T13:58:20.236Z,8.40
2022-12-03T14:00:49.876Z,6.53
2022-12-03T14:03:18.171Z,8.43
2022-12-03T14:05:46.758Z,7.13
2022-12-03T14:08:15.408Z,6.43
2022-12-03T14:10:43.684Z,7.93
2022-12-03T14:13:12.495Z,8.52
2022-12-03T14:15:42.411Z,8.13
2022-12-03T14:18:11.345Z,7.78
2022-12-03T14:20:57.917Z,6.90
2022-12-03T14:23:26.449Z,7.38
2022-12-03T14:25:54.923Z,7.00
2022-12-03T14:28:23.629Z,7.57
2022-12-03T14:30:55.116Z,6.30
2022-12-03T14:33:26.277Z,7.03
2022-12-03T14:35:56.230Z,8.73
2022-12-03T14:40:55.250Z,6.93
2022-12-03T14:43:23.741Z,7.10
2022-12-03T14:45:52.049Z,5.97
2022-12-03T14:48:24.347Z,6.70
2022-12-03T14:50:52.955Z,6.63
2022-12-03T14:53:27.071Z,7.20
2022-12-03T14:55:59.142Z,8.63
2022-12-03T14:58:28.032Z,6.43
2022-12-03T15:00:57.304Z,7.47
2022-12-03T15:03:27.892Z,6.43
2022-12-03T15:06:00.638Z,6.38
2022-12-03T15:08:30.967Z,5.63
2022-12-03T15:11:00.404Z,7.93
2022-12-03T15:13:30.705Z,7.28
2022-12-03T15:16:00.115Z,6.90
2022-12-03T15:18:31.196Z,7.25
2022-12-03T15:21:00.483Z,7.43
2022-12-03T15:23:32.745Z,8.23
2022-12-03T15:26:01.437Z,7.53
2022-12-03T15:31:01.587Z,6.88
2022-12-03T15:33:31.462Z,8.68
2022-12-03T15:35:59.983Z,7.65
2022-12-03T15:38:29.875Z,7.28
2022-12-03T15:40:58.566Z,7.68
2022-12-03T15:43:27.868Z,6.38
2022-12-03T15:45:56.721Z,6.43
2022-12-03T15:48:24.914Z,7.13
2022-12-03T15:51:38.021Z,7.00
2022-12-03T15:54:07.612Z,8.63
2022-12-03T15:56:37.599Z,6.72
2022-12-03T15:59:07.594Z,8.02
2022-12-03T16:01:37.224Z,6.32
2022-12-03T16:04:07.465Z,7.32
2022-12-03T16:06:38.414Z,7.88
2022-12-03T16:09:09.420Z,6.68
2022-12-03T16:11:37.627Z,6.75
2022-12-03T16:14:06.170Z,8.60
2022-12-03T16:16:36.721Z,8.88
2022-12-03T16:19:05.509Z,8.23
2022-12-03T16:21:34.851Z,7.57
2022-12-03T16:24:03.877Z,8.82
2022-12-03T16:26:33.442Z,7.78
2022-12-03T16:29:02.266Z,7.82
2022-12-03T16:31:30.977Z,9.45
2022-12-03T16:34:03.824Z,8.00
2022-12-03T16:36:36.592Z,8.90
2022-12-03T16:39:08.706Z,7.38
2022-12-03T16:41:38.334Z,8.38
2022-12-03T16:44:07.968Z,7.88
2022-12-03T16:49:08.461Z,6.95
2022-12-03T16:54:06.547Z,7.03
2022-12-03T16:56:35.955Z,7.85
2022-12-03T16:59:08.563Z,8.00
2022-12-03T17:01:43.441Z,7.65
2022-12-03T17:04:12.900Z,7.78
2022-12-03T17:06:43.241Z,7.82
2022-12-03T17:09:11.633Z,7.47
2022-12-03T17:11:42.436Z,7.65
2022-12-03T17:14:15.863Z,7.60
2022-12-03T17:16:44.417Z,8.05
2022-12-03T17:19:13.747Z,7.10
2022-12-03T17:21:42.710Z,6.97
2022-12-03T17:24:14.870Z,6.78
2022-12-03T17:26:48.437Z,9.30
2022-12-03T17:29:21.973Z,8.48
2022-12-03T17:31:53.175Z,8.65
2022-12-03T17:34:23.842Z,7.72
2022-12-03T17:36:52.287Z,7.65
2022-12-03T17:39:22.411Z,7.65
2022-12-03T17:41:50.606Z,8.02
2022-12-03T17:44:21.238Z,7.63
2022-12-03T17:46:51.271Z,6.35
2022-12-03T17:49:50.499Z,9.10
2022-12-03T17:52:19.683Z,6.18
2022-12-03T17:55:09.921Z,8.30
2022-12-03T17:57:42.147Z,8.18
2022-12-03T18:00:13.215Z,8.02
2022-12-03T18:02:44.834Z,6.63
2022-12-03T18:05:14.405Z,7.65
2022-12-03T18:07:42.880Z,7.38
2022-12-03T18:10:12.686Z,7.88
2022-12-03T18:12:43.257Z,6.80
2022-12-03T18:15:14.753Z,6.60
2022-12-03T18:17:45.123Z,7.07
2022-12-03T18:20:14.652Z,7.20
2022-12-03T18:22:44.517Z,7.15
2022-12-03T18:25:14.693Z,6.85
2022-12-03T18:27:44.086Z,6.30
2022-12-03T18:30:13.471Z,8.55
2022-12-03T18:32:41.767Z,6.72
2022-12-03T18:35:11.926Z,6.28
2022-12-03T18:37:41.367Z,6.55
2022-12-03T18:42:42.180Z,6.60
2022-12-03T18:45:13.001Z,5.40
2022-12-03T18:47:44.693Z,4.85
2022-12-03T18:50:14.851Z,5.57
2022-12-03T18:52:43.681Z,4.88
2022-12-03T18:55:19.383Z,5.50
2022-12-03T18:57:49.489Z,5.38
2022-12-03T19:00:18.436Z,5.82
2022-12-03T19:03:04.919Z,5.55
2022-12-03T19:05:36.355Z,8.10
2022-12-03T19:08:12.440Z,5.68
2022-12-03T19:10:41.358Z,5.85
2022-12-03T19:13:11.060Z,6.22
2022-12-03T19:15:40.097Z,5.78
2022-12-03T19:18:08.577Z,4.70
2022-12-03T19:20:41.232Z,6.00
2022-12-03T19:23:09.456Z,5.88
2022-12-03T19:25:39.249Z,7.30
2022-12-03T19:28:12.886Z,5.05
2022-12-03T19:30:47.870Z,5.85
2022-12-03T19:33:18.182Z,6.10
2022-12-03T19:35:48.308Z,6.50
2022-12-03T19:38:16.687Z,6.00
2022-12-03T19:40:44.868Z,5.38
2022-12-03T19:43:13.292Z,6.38
2022-12-03T19:45:42.447Z,6.22
2022-12-03T19:48:10.631Z,7.68
2022-12-03T19:50:39.756Z,6.70
2022-12-03T19:53:10.111Z,6.85
2022-12-03T19:55:39.546Z,6.28
2022-12-03T19:58:07.788Z,6.53
2022-12-03T20:00:36.952Z,6.25
2022-12-03T20:03:09.154Z,5.53
2022-12-03T20:05:39.188Z,5.90
2022-12-03T20:08:09.766Z,6.13
2022-12-03T20:10:39.780Z,5.60
2022-12-03T20:13:08.037Z,5.63
2022-12-03T20:15:37.813Z,5.30
2022-12-03T20:20:34.684Z,5.00
2022-12-03T20:23:05.679Z,5.55
2022-12-03T20:25:37.731Z,6.00
2022-12-03T20:28:06.301Z,5.68
2022-12-03T20:30:34.908Z,5.80
2022-12-03T20:33:07.507Z,6.32
2022-12-03T20:35:35.702Z,5.30
2022-12-03T20:38:04.144Z,5.18
2022-12-03T20:40:36.274Z,6.00
2022-12-03T20:43:06.343Z,4.70
2022-12-03T20:45:34.888Z,5.65
2022-12-03T20:48:03.223Z,6.70
2022-12-03T20:50:31.926Z,4.72
2022-12-03T20:53:23.229Z,6.07
2022-12-03T20:55:58.137Z,6.28
2022-12-03T20:58:28.791Z,4.78
2022-12-03T21:00:57.368Z,5.35
2022-12-03T21:03:26.550Z,3.70
2022-12-03T21:06:01.791Z,4.28
2022-12-03T21:08:40.992Z,4.53
2022-12-03T21:11:10.753Z,5.18
2022-12-03T21:13:41.376Z,5.85
2022-12-03T21:16:11.813Z,5.20
2022-12-03T21:18:41.278Z,4.80
2022-12-03T21:21:12.027Z,4.20
2022-12-03T21:23:40.736Z,4.50
2022-12-03T21:28:43.209Z,4.82
2022-12-03T21:31:18.543Z,4.57
2022-12-03T21:33:46.928Z,4.15
2022-12-03T21:36:16.837Z,4.93
2022-12-03T21:38:46.260Z,4.93
2022-12-03T21:41:15.650Z,4.60
2022-12-03T21:43:47.789Z,4.68
2022-12-03T21:47:09.219Z,4.55
2022-12-03T21:49:05.379Z,3.50
2022-12-03T21:51:33.867Z,3.83
2022-12-03T21:54:02.297Z,3.88
2022-12-03T21:56:31.923Z,4.32
2022-12-03T21:59:01.594Z,3.95
2022-12-03T22:01:30.060Z,4.32
2022-12-03T22:03:58.595Z,3.17
2022-12-03T22:06:29.222Z,3.45
2022-12-03T22:08:57.697Z,3.03
2022-12-03T22:11:27.540Z,3.60
2022-12-03T22:16:28.939Z,3.13
2022-12-03T22:18:59.734Z,3.80
2022-12-03T22:21:29.495Z,3.55
2022-12-03T22:23:57.749Z,4.07
2022-12-03T22:26:26.221Z,2.85
2022-12-03T22:28:55.255Z,4.47
2022-12-03T22:31:23.830Z,3.72
2022-12-03T22:33:54.499Z,3.13
2022-12-03T22:36:23.954Z,3.55
2022-12-03T22:38:52.043Z,3.95
2022-12-03T22:41:21.379Z,3.95
2022-12-03T22:43:49.896Z,3.13
2022-12-03T22:46:18.708Z,4.75
2022-12-03T22:48:48.469Z,3.67
2022-12-03T22:51:21.341Z,3.33
2022-12-03T22:53:54.771Z,3.25
2022-12-03T22:56:23.386Z,3.00
2022-12-03T22:58:51.840Z,3.85
2022-12-03T23:01:22.109Z,4.30
2022-12-03T23:03:51.457Z,2.95
2022-12-03T23:06:22.523Z,3.70
2022-12-03T23:08:51.298Z,3.47
2022-12-03T23:11:22.864Z,4.20
2022-12-03T23:13:51.132Z,3.47
2022-12-03T23:16:22.393Z,3.75
2022-12-03T23:18:51.425Z,3.33
2022-12-03T23:21:29.030Z,3.80
2022-12-03T23:23:58.437Z,4.72
2022-12-03T23:26:27.370Z,3.60
2022-12-03T23:28:56.128Z,3.33
2022-12-03T23:31:27.879Z,4.50
2022-12-03T23:33:57.955Z,3.67
2022-12-03T23:36:30.276Z,4.22
2022-12-03T23:38:58.635Z,2.88
2022-12-03T23:41:27.906Z,3.80
2022-12-03T23:43:57.865Z,3.97
2022-12-03T23:46:27.898Z,4.10
2022-12-03T23:48:58.339Z,3.60
2022-12-03T23:51:28.562Z,3.45
2022-12-03T23:53:57.980Z,3.65
2022-12-03T23:56:29.735Z,4.60
2022-12-03T23:58:58.803Z,3.97
